Speed, Indiana
Current Conditions -  °F | °C
As of 7:53 PM on Wednesday 17 Dec 2014 (Local Time) from KLOU Reporting Station
Overcast Overcast  
Wind Chill: 27°   Ceiling: 2100
Heat Index: 33°   Visibility: 10mi
Dew Point: 24°   Wind: 7mph
Humidity: 70%   Direction: 310°NW
Pressure: 30.28"   Gusts: NA
Location:  38.3931°N, 85.7713°W
Report Text: KLOU 180053Z 31006KT 10SM OVC021 01/M04 A3028 RMK AO2 SLP258 T00061044
Loading
Personal Weather Stations






























Interactive Weather Map New forecast layout! Learn more

10-Day Weather Forecast

Advertisements
Track Severe Weather on mobile